sensor_id;sensor_type;location;lat;lon;timestamp;P1;durP1;ratioP1;P2;durP2;ratioP2
7330;SDS011;3706;49.198;7.064;2022-11-25T00:01:46;13.93;;;6.00;;
7330;SDS011;3706;49.198;7.064;2022-11-25T00:04:14;11.13;;;5.10;;
7330;SDS011;3706;49.198;7.064;2022-11-25T00:06:41;17.97;;;6.00;;
7330;SDS011;3706;49.198;7.064;2022-11-25T00:09:09;11.03;;;5.40;;
7330;SDS011;3706;49.198;7.064;2022-11-25T00:11:37;13.93;;;5.13;;
7330;SDS011;3706;49.198;7.064;2022-11-25T00:14:06;11.97;;;5.77;;
7330;SDS011;3706;49.198;7.064;2022-11-25T00:16:37;14.17;;;5.20;;
7330;SDS011;3706;49.198;7.064;2022-11-25T00:19:04;18.07;;;5.47;;
7330;SDS011;3706;49.198;7.064;2022-11-25T00:21:31;15.13;;;5.77;;
7330;SDS011;3706;49.198;7.064;2022-11-25T00:24:00;12.67;;;5.13;;
7330;SDS011;3706;49.198;7.064;2022-11-25T00:26:28;8.73;;;4.70;;
7330;SDS011;3706;49.198;7.064;2022-11-25T00:28:58;13.70;;;5.70;;
7330;SDS011;3706;49.198;7.064;2022-11-25T00:31:27;11.27;;;4.80;;
7330;SDS011;3706;49.198;7.064;2022-11-25T00:33:57;12.73;;;5.57;;
7330;SDS011;3706;49.198;7.064;2022-11-25T00:36:24;15.20;;;5.23;;
7330;SDS011;3706;49.198;7.064;2022-11-25T00:38:53;14.67;;;5.30;;
7330;SDS011;3706;49.198;7.064;2022-11-25T00:41:21;12.60;;;5.33;;
7330;SDS011;3706;49.198;7.064;2022-11-25T00:44:06;16.00;;;5.63;;
7330;SDS011;3706;49.198;7.064;2022-11-25T00:46:52;17.90;;;6.30;;
7330;SDS011;3706;49.198;7.064;2022-11-25T00:49:20;16.27;;;6.70;;
7330;SDS011;3706;49.198;7.064;2022-11-25T00:51:47;12.80;;;6.13;;
7330;SDS011;3706;49.198;7.064;2022-11-25T00:54:14;15.93;;;6.50;;
7330;SDS011;3706;49.198;7.064;2022-11-25T00:56:41;12.20;;;5.10;;
7330;SDS011;3706;49.198;7.064;2022-11-25T00:59:08;16.70;;;6.60;;
7330;SDS011;3706;49.198;7.064;2022-11-25T01:01:35;14.03;;;6.20;;
7330;SDS011;3706;49.198;7.064;2022-11-25T01:04:02;14.17;;;6.70;;
7330;SDS011;3706;49.198;7.064;2022-11-25T01:06:31;11.70;;;5.47;;
7330;SDS011;3706;49.198;7.064;2022-11-25T01:08:59;12.53;;;5.43;;
7330;SDS011;3706;49.198;7.064;2022-11-25T01:11:26;14.20;;;5.67;;
7330;SDS011;3706;49.198;7.064;2022-11-25T01:13:53;16.17;;;6.73;;
7330;SDS011;3706;49.198;7.064;2022-11-25T01:16:22;14.50;;;6.40;;
7330;SDS011;3706;49.198;7.064;2022-11-25T01:18:50;15.63;;;6.27;;
7330;SDS011;3706;49.198;7.064;2022-11-25T01:21:18;10.03;;;6.30;;
7330;SDS011;3706;49.198;7.064;2022-11-25T01:23:47;16.43;;;6.50;;
7330;SDS011;3706;49.198;7.064;2022-11-25T01:26:15;17.67;;;5.73;;
7330;SDS011;3706;49.198;7.064;2022-11-25T01:28:44;12.27;;;6.57;;
7330;SDS011;3706;49.198;7.064;2022-11-25T01:31:12;11.67;;;6.97;;
7330;SDS011;3706;49.198;7.064;2022-11-25T01:33:40;17.33;;;6.77;;
7330;SDS011;3706;49.198;7.064;2022-11-25T01:36:09;13.93;;;6.67;;
7330;SDS011;3706;49.198;7.064;2022-11-25T01:38:37;14.30;;;6.47;;
7330;SDS011;3706;49.198;7.064;2022-11-25T01:41:07;15.77;;;6.37;;
7330;SDS011;3706;49.198;7.064;2022-11-25T01:43:35;18.00;;;6.93;;
7330;SDS011;3706;49.198;7.064;2022-11-25T01:46:04;12.17;;;5.87;;
7330;SDS011;3706;49.198;7.064;2022-11-25T01:48:37;17.03;;;5.97;;
7330;SDS011;3706;49.198;7.064;2022-11-25T01:51:09;20.40;;;6.37;;
7330;SDS011;3706;49.198;7.064;2022-11-25T01:53:44;13.20;;;6.37;;
7330;SDS011;3706;49.198;7.064;2022-11-25T01:56:12;10.40;;;5.40;;
7330;SDS011;3706;49.198;7.064;2022-11-25T01:58:40;12.33;;;6.57;;
7330;SDS011;3706;49.198;7.064;2022-11-25T02:01:09;10.63;;;5.37;;
7330;SDS011;3706;49.198;7.064;2022-11-25T02:03:37;17.47;;;6.17;;
7330;SDS011;3706;49.198;7.064;2022-11-25T02:06:08;11.73;;;5.60;;
7330;SDS011;3706;49.198;7.064;2022-11-25T02:08:38;14.37;;;6.70;;
7330;SDS011;3706;49.198;7.064;2022-11-25T02:11:07;15.07;;;6.73;;
7330;SDS011;3706;49.198;7.064;2022-11-25T02:13:35;11.63;;;5.07;;
7330;SDS011;3706;49.198;7.064;2022-11-25T02:16:03;14.17;;;5.97;;
7330;SDS011;3706;49.198;7.064;2022-11-25T02:18:30;13.73;;;5.57;;
7330;SDS011;3706;49.198;7.064;2022-11-25T02:20:57;12.23;;;5.83;;
7330;SDS011;3706;49.198;7.064;2022-11-25T02:23:25;12.53;;;4.60;;
7330;SDS011;3706;49.198;7.064;2022-11-25T02:26:01;10.17;;;5.47;;
7330;SDS011;3706;49.198;7.064;2022-11-25T02:28:30;14.10;;;5.90;;
7330;SDS011;3706;49.198;7.064;2022-11-25T02:30:57;10.50;;;5.30;;
7330;SDS011;3706;49.198;7.064;2022-11-25T02:33:25;10.97;;;4.93;;
7330;SDS011;3706;49.198;7.064;2022-11-25T02:35:53;10.57;;;4.67;;
7330;SDS011;3706;49.198;7.064;2022-11-25T02:38:22;14.53;;;5.50;;
7330;SDS011;3706;49.198;7.064;2022-11-25T02:40:54;11.67;;;5.13;;
7330;SDS011;3706;49.198;7.064;2022-11-25T02:43:26;12.30;;;5.23;;
7330;SDS011;3706;49.198;7.064;2022-11-25T02:45:55;12.80;;;5.50;;
7330;SDS011;3706;49.198;7.064;2022-11-25T02:48:24;13.20;;;5.47;;
7330;SDS011;3706;49.198;7.064;2022-11-25T02:50:52;10.90;;;5.80;;
7330;SDS011;3706;49.198;7.064;2022-11-25T02:53:19;10.43;;;5.80;;
7330;SDS011;3706;49.198;7.064;2022-11-25T02:55:46;11.03;;;4.80;;
7330;SDS011;3706;49.198;7.064;2022-11-25T02:58:13;15.90;;;5.63;;
7330;SDS011;3706;49.198;7.064;2022-11-25T03:00:42;13.30;;;5.53;;
7330;SDS011;3706;49.198;7.064;2022-11-25T03:03:10;13.03;;;4.93;;
7330;SDS011;3706;49.198;7.064;2022-11-25T03:05:38;9.30;;;5.03;;
7330;SDS011;3706;49.198;7.064;2022-11-25T03:08:05;14.97;;;5.70;;
7330;SDS011;3706;49.198;7.064;2022-11-25T03:10:33;10.77;;;4.30;;
7330;SDS011;3706;49.198;7.064;2022-11-25T03:13:00;10.27;;;4.73;;
7330;SDS011;3706;49.198;7.064;2022-11-25T03:15:28;11.10;;;5.07;;
7330;SDS011;3706;49.198;7.064;2022-11-25T03:17:56;10.57;;;4.90;;
7330;SDS011;3706;49.198;7.064;2022-11-25T03:20:23;11.47;;;4.47;;
7330;SDS011;3706;49.198;7.064;2022-11-25T03:22:50;9.03;;;4.43;;
7330;SDS011;3706;49.198;7.064;2022-11-25T03:25:17;11.00;;;4.60;;
7330;SDS011;3706;49.198;7.064;2022-11-25T03:27:44;8.80;;;4.07;;
7330;SDS011;3706;49.198;7.064;2022-11-25T03:30:13;15.27;;;4.73;;
7330;SDS011;3706;49.198;7.064;2022-11-25T03:32:41;11.03;;;4.67;;
7330;SDS011;3706;49.198;7.064;2022-11-25T03:35:09;14.57;;;5.13;;
7330;SDS011;3706;49.198;7.064;2022-11-25T03:37:37;10.03;;;4.20;;
7330;SDS011;3706;49.198;7.064;2022-11-25T03:40:05;9.47;;;4.10;;
7330;SDS011;3706;49.198;7.064;2022-11-25T03:42:33;10.07;;;4.17;;
7330;SDS011;3706;49.198;7.064;2022-11-25T03:45:00;13.47;;;4.60;;
7330;SDS011;3706;49.198;7.064;2022-11-25T03:47:27;14.50;;;3.80;;
7330;SDS011;3706;49.198;7.064;2022-11-25T03:49:54;14.27;;;4.87;;
7330;SDS011;3706;49.198;7.064;2022-11-25T03:52:22;13.87;;;4.40;;
7330;SDS011;3706;49.198;7.064;2022-11-25T03:54:49;11.37;;;4.07;;
7330;SDS011;3706;49.198;7.064;2022-11-25T03:57:16;10.93;;;3.97;;
7330;SDS011;3706;49.198;7.064;2022-11-25T03:59:43;10.47;;;4.37;;
7330;SDS011;3706;49.198;7.064;2022-11-25T04:02:10;7.13;;;3.63;;
7330;SDS011;3706;49.198;7.064;2022-11-25T04:04:38;11.07;;;4.23;;
7330;SDS011;3706;49.198;7.064;2022-11-25T04:07:05;6.80;;;3.47;;
7330;SDS011;3706;49.198;7.064;2022-11-25T04:09:33;10.50;;;3.80;;
7330;SDS011;3706;49.198;7.064;2022-11-25T04:12:00;10.30;;;4.07;;
7330;SDS011;3706;49.198;7.064;2022-11-25T04:14:45;10.13;;;3.67;;
7330;SDS011;3706;49.198;7.064;2022-11-25T04:17:11;7.80;;;3.90;;
7330;SDS011;3706;49.198;7.064;2022-11-25T04:19:38;13.13;;;3.90;;
7330;SDS011;3706;49.198;7.064;2022-11-25T04:22:05;11.03;;;4.23;;
7330;SDS011;3706;49.198;7.064;2022-11-25T04:24:33;10.97;;;4.23;;
7330;SDS011;3706;49.198;7.064;2022-11-25T04:27:00;8.07;;;3.70;;
7330;SDS011;3706;49.198;7.064;2022-11-25T04:29:27;10.60;;;4.47;;
7330;SDS011;3706;49.198;7.064;2022-11-25T04:31:54;7.53;;;3.90;;
7330;SDS011;3706;49.198;7.064;2022-11-25T04:34:21;11.80;;;4.40;;
7330;SDS011;3706;49.198;7.064;2022-11-25T04:36:48;8.07;;;3.80;;
7330;SDS011;3706;49.198;7.064;2022-11-25T04:39:15;11.20;;;4.00;;
7330;SDS011;3706;49.198;7.064;2022-11-25T04:41:43;9.47;;;4.73;;
7330;SDS011;3706;49.198;7.064;2022-11-25T04:44:10;14.27;;;4.70;;
7330;SDS011;3706;49.198;7.064;2022-11-25T04:46:38;10.23;;;3.60;;
7330;SDS011;3706;49.198;7.064;2022-11-25T04:49:07;18.13;;;4.57;;
7330;SDS011;3706;49.198;7.064;2022-11-25T04:51:34;11.37;;;4.90;;
7330;SDS011;3706;49.198;7.064;2022-11-25T04:54:01;9.13;;;4.67;;
7330;SDS011;3706;49.198;7.064;2022-11-25T04:56:28;7.47;;;3.57;;
7330;SDS011;3706;49.198;7.064;2022-11-25T04:58:57;5.87;;;3.13;;
7330;SDS011;3706;49.198;7.064;2022-11-25T05:01:41;9.03;;;3.47;;
7330;SDS011;3706;49.198;7.064;2022-11-25T05:04:08;10.03;;;4.17;;
7330;SDS011;3706;49.198;7.064;2022-11-25T05:06:35;9.97;;;4.27;;
7330;SDS011;3706;49.198;7.064;2022-11-25T05:09:02;10.63;;;4.20;;
7330;SDS011;3706;49.198;7.064;2022-11-25T05:11:29;9.60;;;3.60;;
7330;SDS011;3706;49.198;7.064;2022-11-25T05:13:57;9.57;;;3.13;;
7330;SDS011;3706;49.198;7.064;2022-11-25T05:16:24;12.07;;;2.70;;
7330;SDS011;3706;49.198;7.064;2022-11-25T05:18:51;8.50;;;2.57;;
7330;SDS011;3706;49.198;7.064;2022-11-25T05:21:20;4.70;;;2.30;;
7330;SDS011;3706;49.198;7.064;2022-11-25T05:23:47;7.93;;;2.33;;
7330;SDS011;3706;49.198;7.064;2022-11-25T05:26:14;7.50;;;2.33;;
7330;SDS011;3706;49.198;7.064;2022-11-25T05:28:40;8.50;;;2.63;;
7330;SDS011;3706;49.198;7.064;2022-11-25T05:31:09;5.20;;;2.40;;
7330;SDS011;3706;49.198;7.064;2022-11-25T05:33:36;9.83;;;2.90;;
7330;SDS011;3706;49.198;7.064;2022-11-25T05:36:03;7.60;;;2.87;;
7330;SDS011;3706;49.198;7.064;2022-11-25T05:38:30;9.23;;;2.73;;
7330;SDS011;3706;49.198;7.064;2022-11-25T05:41:00;9.33;;;3.10;;
7330;SDS011;3706;49.198;7.064;2022-11-25T05:43:29;7.57;;;2.40;;
7330;SDS011;3706;49.198;7.064;2022-11-25T05:45:56;14.80;;;2.80;;
7330;SDS011;3706;49.198;7.064;2022-11-25T05:48:25;5.93;;;2.60;;
7330;SDS011;3706;49.198;7.064;2022-11-25T05:50:52;9.53;;;3.10;;
7330;SDS011;3706;49.198;7.064;2022-11-25T05:53:18;9.37;;;3.27;;
7330;SDS011;3706;49.198;7.064;2022-11-25T05:55:52;5.47;;;2.73;;
7330;SDS011;3706;49.198;7.064;2022-11-25T05:58:20;6.07;;;2.70;;
7330;SDS011;3706;49.198;7.064;2022-11-25T06:00:47;11.07;;;3.10;;
7330;SDS011;3706;49.198;7.064;2022-11-25T06:03:15;7.33;;;2.50;;
7330;SDS011;3706;49.198;7.064;2022-11-25T06:05:43;6.40;;;2.63;;
7330;SDS011;3706;49.198;7.064;2022-11-25T06:08:10;11.90;;;2.73;;
7330;SDS011;3706;49.198;7.064;2022-11-25T06:10:37;9.63;;;2.47;;
7330;SDS011;3706;49.198;7.064;2022-11-25T06:13:04;11.50;;;3.27;;
7330;SDS011;3706;49.198;7.064;2022-11-25T06:15:32;7.80;;;2.70;;
7330;SDS011;3706;49.198;7.064;2022-11-25T06:17:59;9.50;;;2.50;;
7330;SDS011;3706;49.198;7.064;2022-11-25T06:20:26;7.00;;;3.00;;
7330;SDS011;3706;49.198;7.064;2022-11-25T06:22:54;9.50;;;2.93;;
7330;SDS011;3706;49.198;7.064;2022-11-25T06:25:22;10.37;;;3.23;;
7330;SDS011;3706;49.198;7.064;2022-11-25T06:27:49;5.37;;;2.50;;
7330;SDS011;3706;49.198;7.064;2022-11-25T06:30:16;8.83;;;2.90;;
7330;SDS011;3706;49.198;7.064;2022-11-25T06:32:43;6.97;;;3.00;;
7330;SDS011;3706;49.198;7.064;2022-11-25T06:35:10;8.17;;;3.10;;
7330;SDS011;3706;49.198;7.064;2022-11-25T06:37:37;13.43;;;3.33;;
7330;SDS011;3706;49.198;7.064;2022-11-25T06:40:07;10.47;;;3.43;;
7330;SDS011;3706;49.198;7.064;2022-11-25T06:42:34;10.63;;;3.23;;
7330;SDS011;3706;49.198;7.064;2022-11-25T06:45:03;9.50;;;2.97;;
7330;SDS011;3706;49.198;7.064;2022-11-25T06:47:31;9.80;;;3.27;;
7330;SDS011;3706;49.198;7.064;2022-11-25T06:49:58;10.40;;;3.40;;
7330;SDS011;3706;49.198;7.064;2022-11-25T06:52:25;7.97;;;3.50;;
7330;SDS011;3706;49.198;7.064;2022-11-25T06:54:52;7.67;;;2.80;;
7330;SDS011;3706;49.198;7.064;2022-11-25T06:57:20;8.60;;;3.00;;
7330;SDS011;3706;49.198;7.064;2022-11-25T06:59:47;13.97;;;3.47;;
7330;SDS011;3706;49.198;7.064;2022-11-25T07:02:15;7.80;;;3.40;;
7330;SDS011;3706;49.198;7.064;2022-11-25T07:04:42;11.37;;;3.13;;
7330;SDS011;3706;49.198;7.064;2022-11-25T07:07:09;8.63;;;3.60;;
7330;SDS011;3706;49.198;7.064;2022-11-25T07:09:36;12.73;;;4.07;;
7330;SDS011;3706;49.198;7.064;2022-11-25T07:12:03;8.43;;;3.47;;
7330;SDS011;3706;49.198;7.064;2022-11-25T07:14:32;9.70;;;3.43;;
7330;SDS011;3706;49.198;7.064;2022-11-25T07:16:59;12.20;;;3.40;;
7330;SDS011;3706;49.198;7.064;2022-11-25T07:19:26;9.00;;;3.80;;
7330;SDS011;3706;49.198;7.064;2022-11-25T07:21:57;12.37;;;3.57;;
7330;SDS011;3706;49.198;7.064;2022-11-25T07:24:24;10.17;;;3.17;;
7330;SDS011;3706;49.198;7.064;2022-11-25T07:26:51;10.27;;;3.60;;
7330;SDS011;3706;49.198;7.064;2022-11-25T07:29:18;9.10;;;3.20;;
7330;SDS011;3706;49.198;7.064;2022-11-25T07:31:46;9.87;;;4.17;;
7330;SDS011;3706;49.198;7.064;2022-11-25T07:34:14;6.77;;;3.87;;
7330;SDS011;3706;49.198;7.064;2022-11-25T07:36:43;9.93;;;3.80;;
7330;SDS011;3706;49.198;7.064;2022-11-25T07:39:11;11.00;;;4.87;;
7330;SDS011;3706;49.198;7.064;2022-11-25T07:41:39;13.07;;;4.90;;
7330;SDS011;3706;49.198;7.064;2022-11-25T07:44:07;10.67;;;4.40;;
7330;SDS011;3706;49.198;7.064;2022-11-25T07:46:37;14.47;;;3.70;;
7330;SDS011;3706;49.198;7.064;2022-11-25T07:49:08;11.60;;;3.97;;
7330;SDS011;3706;49.198;7.064;2022-11-25T07:51:37;12.10;;;4.40;;
7330;SDS011;3706;49.198;7.064;2022-11-25T07:54:06;11.23;;;4.50;;
7330;SDS011;3706;49.198;7.064;2022-11-25T07:56:35;11.23;;;3.90;;
7330;SDS011;3706;49.198;7.064;2022-11-25T07:59:04;14.37;;;4.23;;
7330;SDS011;3706;49.198;7.064;2022-11-25T08:01:32;8.90;;;3.97;;
7330;SDS011;3706;49.198;7.064;2022-11-25T08:03:59;11.87;;;3.90;;
7330;SDS011;3706;49.198;7.064;2022-11-25T08:06:27;11.20;;;5.00;;
7330;SDS011;3706;49.198;7.064;2022-11-25T08:08:55;11.27;;;4.27;;
7330;SDS011;3706;49.198;7.064;2022-11-25T08:11:23;10.10;;;4.63;;
7330;SDS011;3706;49.198;7.064;2022-11-25T08:13:52;12.50;;;4.70;;
7330;SDS011;3706;49.198;7.064;2022-11-25T08:16:20;11.37;;;4.50;;
7330;SDS011;3706;49.198;7.064;2022-11-25T08:18:48;9.97;;;4.27;;
7330;SDS011;3706;49.198;7.064;2022-11-25T08:21:15;17.43;;;5.17;;
7330;SDS011;3706;49.198;7.064;2022-11-25T08:23:45;16.23;;;4.80;;
7330;SDS011;3706;49.198;7.064;2022-11-25T08:26:13;11.17;;;5.10;;
7330;SDS011;3706;49.198;7.064;2022-11-25T08:28:42;10.77;;;5.03;;
7330;SDS011;3706;49.198;7.064;2022-11-25T08:31:10;13.63;;;5.17;;
7330;SDS011;3706;49.198;7.064;2022-11-25T08:33:38;13.37;;;5.07;;
7330;SDS011;3706;49.198;7.064;2022-11-25T08:36:06;14.73;;;5.20;;
7330;SDS011;3706;49.198;7.064;2022-11-25T08:38:34;14.70;;;4.70;;
7330;SDS011;3706;49.198;7.064;2022-11-25T08:41:02;11.73;;;5.00;;
7330;SDS011;3706;49.198;7.064;2022-11-25T08:43:33;13.63;;;5.27;;
7330;SDS011;3706;49.198;7.064;2022-11-25T08:46:00;13.00;;;5.47;;
7330;SDS011;3706;49.198;7.064;2022-11-25T08:48:33;11.53;;;5.13;;
7330;SDS011;3706;49.198;7.064;2022-11-25T08:51:00;13.50;;;5.70;;
7330;SDS011;3706;49.198;7.064;2022-11-25T08:53:27;12.57;;;5.93;;
7330;SDS011;3706;49.198;7.064;2022-11-25T08:55:54;13.80;;;5.67;;
7330;SDS011;3706;49.198;7.064;2022-11-25T08:58:22;13.43;;;5.70;;
7330;SDS011;3706;49.198;7.064;2022-11-25T09:00:49;14.27;;;5.77;;
7330;SDS011;3706;49.198;7.064;2022-11-25T09:03:16;14.93;;;6.40;;
7330;SDS011;3706;49.198;7.064;2022-11-25T09:05:43;13.13;;;5.43;;
7330;SDS011;3706;49.198;7.064;2022-11-25T09:08:18;11.97;;;5.03;;
7330;SDS011;3706;49.198;7.064;2022-11-25T09:10:45;12.27;;;5.00;;
7330;SDS011;3706;49.198;7.064;2022-11-25T09:13:12;12.60;;;5.93;;
7330;SDS011;3706;49.198;7.064;2022-11-25T09:15:40;10.80;;;5.13;;
7330;SDS011;3706;49.198;7.064;2022-11-25T09:18:08;10.30;;;4.80;;
7330;SDS011;3706;49.198;7.064;2022-11-25T09:20:36;12.77;;;5.10;;
7330;SDS011;3706;49.198;7.064;2022-11-25T09:23:05;10.33;;;5.10;;
7330;SDS011;3706;49.198;7.064;2022-11-25T09:25:34;12.73;;;4.80;;
7330;SDS011;3706;49.198;7.064;2022-11-25T09:28:01;10.80;;;5.07;;
7330;SDS011;3706;49.198;7.064;2022-11-25T09:30:29;12.10;;;5.80;;
7330;SDS011;3706;49.198;7.064;2022-11-25T09:32:58;11.13;;;5.43;;
7330;SDS011;3706;49.198;7.064;2022-11-25T09:35:25;13.80;;;5.20;;
7330;SDS011;3706;49.198;7.064;2022-11-25T09:37:52;8.63;;;4.83;;
7330;SDS011;3706;49.198;7.064;2022-11-25T09:40:19;11.03;;;4.97;;
7330;SDS011;3706;49.198;7.064;2022-11-25T09:42:53;12.33;;;5.20;;
7330;SDS011;3706;49.198;7.064;2022-11-25T09:45:45;9.40;;;5.07;;
7330;SDS011;3706;49.198;7.064;2022-11-25T09:48:45;11.03;;;5.03;;
7330;SDS011;3706;49.198;7.064;2022-11-25T09:51:20;10.13;;;5.10;;
7330;SDS011;3706;49.198;7.064;2022-11-25T09:53:50;12.27;;;5.50;;
7330;SDS011;3706;49.198;7.064;2022-11-25T09:56:23;12.97;;;5.47;;
7330;SDS011;3706;49.198;7.064;2022-11-25T09:58:55;11.63;;;5.30;;
7330;SDS011;3706;49.198;7.064;2022-11-25T10:01:25;10.87;;;5.03;;
7330;SDS011;3706;49.198;7.064;2022-11-25T10:03:57;11.20;;;4.43;;
7330;SDS011;3706;49.198;7.064;2022-11-25T10:06:28;9.83;;;4.30;;
7330;SDS011;3706;49.198;7.064;2022-11-25T10:08:58;13.23;;;5.10;;
7330;SDS011;3706;49.198;7.064;2022-11-25T10:11:28;12.70;;;5.20;;
7330;SDS011;3706;49.198;7.064;2022-11-25T10:14:04;9.23;;;4.43;;
7330;SDS011;3706;49.198;7.064;2022-11-25T10:16:38;8.70;;;4.23;;
7330;SDS011;3706;49.198;7.064;2022-11-25T10:19:18;10.83;;;4.97;;
7330;SDS011;3706;49.198;7.064;2022-11-25T10:21:49;10.47;;;5.07;;
7330;SDS011;3706;49.198;7.064;2022-11-25T10:24:17;10.23;;;4.40;;
7330;SDS011;3706;49.198;7.064;2022-11-25T10:26:47;7.83;;;4.83;;
7330;SDS011;3706;49.198;7.064;2022-11-25T10:29:24;7.53;;;4.60;;
7330;SDS011;3706;49.198;7.064;2022-11-25T10:31:59;12.13;;;4.90;;
7330;SDS011;3706;49.198;7.064;2022-11-25T10:34:38;8.17;;;4.20;;
7330;SDS011;3706;49.198;7.064;2022-11-25T10:37:11;9.07;;;4.30;;
7330;SDS011;3706;49.198;7.064;2022-11-25T10:39:43;7.93;;;4.03;;
7330;SDS011;3706;49.198;7.064;2022-11-25T10:42:13;10.47;;;3.97;;
7330;SDS011;3706;49.198;7.064;2022-11-25T10:44:44;10.27;;;3.87;;
7330;SDS011;3706;49.198;7.064;2022-11-25T10:47:14;8.87;;;4.30;;
7330;SDS011;3706;49.198;7.064;2022-11-25T10:49:56;9.23;;;4.37;;
7330;SDS011;3706;49.198;7.064;2022-11-25T10:52:29;10.07;;;3.40;;
7330;SDS011;3706;49.198;7.064;2022-11-25T10:55:07;9.30;;;3.53;;
7330;SDS011;3706;49.198;7.064;2022-11-25T10:57:36;11.80;;;3.80;;
7330;SDS011;3706;49.198;7.064;2022-11-25T11:00:03;10.73;;;3.37;;
7330;SDS011;3706;49.198;7.064;2022-11-25T11:02:36;10.27;;;3.40;;
7330;SDS011;3706;49.198;7.064;2022-11-25T11:05:15;9.70;;;3.33;;
7330;SDS011;3706;49.198;7.064;2022-11-25T11:07:47;12.30;;;3.47;;
7330;SDS011;3706;49.198;7.064;2022-11-25T11:10:34;9.97;;;3.23;;
7330;SDS011;3706;49.198;7.064;2022-11-25T11:13:02;7.30;;;3.20;;
7330;SDS011;3706;49.198;7.064;2022-11-25T11:15:31;9.57;;;3.90;;
7330;SDS011;3706;49.198;7.064;2022-11-25T11:18:00;8.10;;;3.13;;
7330;SDS011;3706;49.198;7.064;2022-11-25T11:20:47;8.63;;;3.37;;
7330;SDS011;3706;49.198;7.064;2022-11-25T11:23:18;9.43;;;3.40;;
7330;SDS011;3706;49.198;7.064;2022-11-25T11:25:53;8.40;;;3.10;;
7330;SDS011;3706;49.198;7.064;2022-11-25T11:28:24;10.27;;;3.33;;
7330;SDS011;3706;49.198;7.064;2022-11-25T11:30:54;9.40;;;2.73;;
7330;SDS011;3706;49.198;7.064;2022-11-25T11:33:27;9.73;;;2.77;;
7330;SDS011;3706;49.198;7.064;2022-11-25T11:36:02;9.10;;;4.47;;
7330;SDS011;3706;49.198;7.064;2022-11-25T11:38:40;8.43;;;3.17;;
7330;SDS011;3706;49.198;7.064;2022-11-25T11:41:16;8.07;;;2.97;;
7330;SDS011;3706;49.198;7.064;2022-11-25T11:43:54;9.80;;;3.00;;
7330;SDS011;3706;49.198;7.064;2022-11-25T11:46:32;10.50;;;3.33;;
7330;SDS011;3706;49.198;7.064;2022-11-25T11:49:13;10.57;;;2.63;;
7330;SDS011;3706;49.198;7.064;2022-11-25T11:52:00;11.43;;;3.13;;
7330;SDS011;3706;49.198;7.064;2022-11-25T11:54:35;11.40;;;3.67;;
7330;SDS011;3706;49.198;7.064;2022-11-25T11:57:11;10.97;;;3.37;;
7330;SDS011;3706;49.198;7.064;2022-11-25T11:59:47;8.00;;;3.17;;
7330;SDS011;3706;49.198;7.064;2022-11-25T12:05:16;10.33;;;3.00;;
7330;SDS011;3706;49.198;7.064;2022-11-25T12:07:53;9.73;;;2.80;;
7330;SDS011;3706;49.198;7.064;2022-11-25T12:10:25;8.47;;;3.77;;
7330;SDS011;3706;49.198;7.064;2022-11-25T12:12:58;12.63;;;3.00;;
7330;SDS011;3706;49.198;7.064;2022-11-25T12:15:36;10.13;;;3.07;;
7330;SDS011;3706;49.198;7.064;2022-11-25T12:18:10;13.47;;;3.17;;
7330;SDS011;3706;49.198;7.064;2022-11-25T12:20:46;16.97;;;3.73;;
7330;SDS011;3706;49.198;7.064;2022-11-25T12:23:21;9.00;;;2.73;;
7330;SDS011;3706;49.198;7.064;2022-11-25T12:25:53;10.83;;;2.90;;
7330;SDS011;3706;49.198;7.064;2022-11-25T12:28:24;9.90;;;3.63;;
7330;SDS011;3706;49.198;7.064;2022-11-25T12:31:01;10.80;;;3.30;;
7330;SDS011;3706;49.198;7.064;2022-11-25T12:33:40;13.17;;;3.67;;
7330;SDS011;3706;49.198;7.064;2022-11-25T12:36:12;11.70;;;3.20;;
7330;SDS011;3706;49.198;7.064;2022-11-25T12:38:46;15.13;;;3.57;;
7330;SDS011;3706;49.198;7.064;2022-11-25T12:41:22;10.10;;;3.10;;
7330;SDS011;3706;49.198;7.064;2022-11-25T12:43:56;12.70;;;3.17;;
7330;SDS011;3706;49.198;7.064;2022-11-25T12:46:34;10.60;;;3.23;;
7330;SDS011;3706;49.198;7.064;2022-11-25T12:49:04;11.03;;;3.33;;
7330;SDS011;3706;49.198;7.064;2022-11-25T12:51:44;9.43;;;3.47;;
7330;SDS011;3706;49.198;7.064;2022-11-25T12:54:32;11.90;;;3.50;;
7330;SDS011;3706;49.198;7.064;2022-11-25T13:00:16;9.80;;;2.70;;
7330;SDS011;3706;49.198;7.064;2022-11-25T13:05:53;11.00;;;3.03;;
7330;SDS011;3706;49.198;7.064;2022-11-25T13:08:36;14.37;;;3.77;;
7330;SDS011;3706;49.198;7.064;2022-11-25T13:11:27;12.47;;;3.33;;
7330;SDS011;3706;49.198;7.064;2022-11-25T13:14:17;15.57;;;4.13;;
7330;SDS011;3706;49.198;7.064;2022-11-25T13:16:50;14.07;;;3.40;;
7330;SDS011;3706;49.198;7.064;2022-11-25T13:19:19;12.33;;;3.60;;
7330;SDS011;3706;49.198;7.064;2022-11-25T13:21:56;12.33;;;3.70;;
7330;SDS011;3706;49.198;7.064;2022-11-25T13:24:25;11.93;;;3.70;;
7330;SDS011;3706;49.198;7.064;2022-11-25T13:26:56;12.90;;;4.30;;
7330;SDS011;3706;49.198;7.064;2022-11-25T13:32:30;12.27;;;3.20;;
7330;SDS011;3706;49.198;7.064;2022-11-25T13:44:04;11.77;;;3.20;;
7330;SDS011;3706;49.198;7.064;2022-11-25T13:46:37;8.00;;;3.70;;
7330;SDS011;3706;49.198;7.064;2022-11-25T13:49:21;13.07;;;2.83;;
7330;SDS011;3706;49.198;7.064;2022-11-25T13:52:02;9.47;;;2.70;;
7330;SDS011;3706;49.198;7.064;2022-11-25T13:54:48;10.33;;;2.90;;
7330;SDS011;3706;49.198;7.064;2022-11-25T13:57:23;10.83;;;3.63;;
7330;SDS011;3706;49.198;7.064;2022-11-25T13:59:54;12.17;;;3.17;;
7330;SDS011;3706;49.198;7.064;2022-11-25T14:02:28;10.73;;;3.60;;
7330;SDS011;3706;49.198;7.064;2022-11-25T14:04:59;11.00;;;2.90;;
7330;SDS011;3706;49.198;7.064;2022-11-25T14:07:38;11.83;;;3.23;;
7330;SDS011;3706;49.198;7.064;2022-11-25T14:10:32;10.93;;;3.17;;
7330;SDS011;3706;49.198;7.064;2022-11-25T14:13:16;14.73;;;3.57;;
7330;SDS011;3706;49.198;7.064;2022-11-25T14:16:10;10.70;;;3.10;;
7330;SDS011;3706;49.198;7.064;2022-11-25T14:18:50;14.60;;;4.00;;
7330;SDS011;3706;49.198;7.064;2022-11-25T14:21:51;10.17;;;3.43;;
7330;SDS011;3706;49.198;7.064;2022-11-25T14:24:28;8.57;;;2.83;;
7330;SDS011;3706;49.198;7.064;2022-11-25T14:27:01;10.10;;;3.03;;
7330;SDS011;3706;49.198;7.064;2022-11-25T14:29:34;10.53;;;3.30;;
7330;SDS011;3706;49.198;7.064;2022-11-25T14:32:06;13.20;;;3.60;;
7330;SDS011;3706;49.198;7.064;2022-11-25T14:34:38;13.00;;;3.53;;
7330;SDS011;3706;49.198;7.064;2022-11-25T14:37:09;10.37;;;3.30;;
7330;SDS011;3706;49.198;7.064;2022-11-25T14:39:41;12.03;;;3.17;;
7330;SDS011;3706;49.198;7.064;2022-11-25T14:42:12;13.20;;;3.53;;
7330;SDS011;3706;49.198;7.064;2022-11-25T14:44:44;12.30;;;3.20;;
7330;SDS011;3706;49.198;7.064;2022-11-25T14:47:14;8.30;;;3.27;;
7330;SDS011;3706;49.198;7.064;2022-11-25T14:49:46;12.37;;;3.13;;
7330;SDS011;3706;49.198;7.064;2022-11-25T14:52:15;10.57;;;3.23;;
7330;SDS011;3706;49.198;7.064;2022-11-25T14:54:44;14.93;;;3.40;;
7330;SDS011;3706;49.198;7.064;2022-11-25T14:57:11;14.50;;;3.53;;
7330;SDS011;3706;49.198;7.064;2022-11-25T14:59:38;13.03;;;3.10;;
7330;SDS011;3706;49.198;7.064;2022-11-25T15:02:05;7.70;;;2.77;;
7330;SDS011;3706;49.198;7.064;2022-11-25T15:04:50;9.80;;;3.07;;
7330;SDS011;3706;49.198;7.064;2022-11-25T15:07:19;8.97;;;3.17;;
7330;SDS011;3706;49.198;7.064;2022-11-25T15:09:47;12.37;;;4.00;;
7330;SDS011;3706;49.198;7.064;2022-11-25T15:12:15;16.17;;;3.47;;
7330;SDS011;3706;49.198;7.064;2022-11-25T15:14:49;16.80;;;3.17;;
7330;SDS011;3706;49.198;7.064;2022-11-25T15:17:22;11.87;;;3.00;;
7330;SDS011;3706;49.198;7.064;2022-11-25T15:19:54;16.37;;;3.63;;
7330;SDS011;3706;49.198;7.064;2022-11-25T15:22:22;7.67;;;2.77;;
7330;SDS011;3706;49.198;7.064;2022-11-25T15:24:50;8.93;;;3.03;;
7330;SDS011;3706;49.198;7.064;2022-11-25T15:27:19;10.60;;;2.77;;
7330;SDS011;3706;49.198;7.064;2022-11-25T15:29:49;11.50;;;3.80;;
7330;SDS011;3706;49.198;7.064;2022-11-25T15:32:17;14.00;;;3.30;;
7330;SDS011;3706;49.198;7.064;2022-11-25T15:34:49;13.13;;;3.33;;
7330;SDS011;3706;49.198;7.064;2022-11-25T15:37:17;14.33;;;3.33;;
7330;SDS011;3706;49.198;7.064;2022-11-25T15:39:44;11.27;;;3.13;;
7330;SDS011;3706;49.198;7.064;2022-11-25T15:42:14;9.10;;;3.03;;
7330;SDS011;3706;49.198;7.064;2022-11-25T15:44:45;12.60;;;2.97;;
7330;SDS011;3706;49.198;7.064;2022-11-25T15:47:17;15.20;;;4.53;;